createdAt,value
2018-06-24T00:00:07.566Z,84.92
2018-06-24T00:01:09.048Z,85.02
2018-06-24T00:02:07.527Z,84.92
2018-06-24T00:03:07.511Z,85.02
2018-06-24T00:04:07.490Z,85.69
2018-06-24T00:05:07.472Z,85.50
2018-06-24T00:06:07.452Z,86.27
2018-06-24T00:07:11.939Z,85.94
2018-06-24T00:08:07.415Z,86.22
2018-06-24T00:09:07.396Z,86.32
2018-06-24T00:10:07.378Z,87.18
2018-06-24T00:11:07.359Z,87.66
2018-06-24T00:12:07.343Z,87.27
2018-06-24T00:13:07.322Z,87.47
2018-06-24T00:14:07.306Z,87.56
2018-06-24T00:15:07.283Z,88.62
2018-06-24T00:16:07.328Z,88.43
2018-06-24T00:17:07.246Z,88.52
2018-06-24T00:18:07.230Z,88.33
2018-06-24T00:19:07.208Z,88.95
2018-06-24T00:20:07.190Z,88.86
2018-06-24T00:21:07.170Z,89.05
2018-06-24T00:22:07.152Z,89.53
2018-06-24T00:23:07.133Z,89.53
2018-06-24T00:24:07.113Z,89.43
2018-06-24T00:25:07.094Z,88.95
2018-06-24T00:26:07.077Z,90.01
2018-06-24T00:27:07.057Z,90.10
2018-06-24T00:28:07.039Z,89.53
2018-06-24T00:29:07.019Z,89.34
2018-06-24T00:30:06.999Z,90.01
2018-06-24T00:31:06.988Z,89.91
2018-06-24T00:32:06.963Z,89.34
2018-06-24T00:33:06.943Z,89.91
2018-06-24T00:34:06.923Z,90.16
2018-06-24T00:35:06.903Z,90.06
2018-06-24T00:36:06.885Z,89.96
2018-06-24T00:37:06.876Z,90.34
2018-06-24T00:38:06.847Z,90.16
2018-06-24T00:39:06.826Z,90.53
2018-06-24T00:40:06.858Z,90.34
2018-06-24T00:41:06.786Z,90.06
2018-06-24T00:42:06.768Z,90.06
2018-06-24T00:43:06.748Z,90.34
2018-06-24T00:44:06.730Z,90.73
2018-06-24T00:45:07.460Z,90.34
2018-06-24T00:46:06.690Z,90.82
2018-06-24T00:47:06.671Z,90.63
2018-06-24T00:48:06.651Z,90.53
2018-06-24T00:49:06.632Z,90.73
2018-06-24T00:50:06.614Z,90.63
2018-06-24T00:51:06.593Z,91.11
2018-06-24T00:52:06.579Z,90.82
2018-06-24T00:53:06.553Z,91.02
2018-06-24T00:54:06.534Z,90.53
2018-06-24T00:55:06.516Z,90.53
2018-06-24T00:56:06.496Z,90.63
2018-06-24T00:57:06.478Z,90.82
2018-06-24T00:58:06.455Z,90.63
2018-06-24T00:59:06.436Z,90.73
2018-06-24T01:00:06.417Z,91.39
2018-06-24T01:01:06.397Z,91.30
2018-06-24T01:02:06.377Z,91.20
2018-06-24T01:03:06.359Z,90.92
2018-06-24T01:04:06.339Z,91.30
2018-06-24T01:05:06.317Z,91.78
2018-06-24T01:06:06.298Z,91.97
2018-06-24T01:07:06.279Z,91.68
2018-06-24T01:08:06.267Z,91.11
2018-06-24T01:09:06.240Z,91.68
2018-06-24T01:10:06.221Z,91.49
2018-06-24T01:11:06.952Z,91.74
2018-06-24T01:12:06.181Z,91.74
2018-06-24T01:13:06.159Z,92.35
2018-06-24T01:14:06.141Z,92.59
2018-06-24T01:15:06.121Z,92.64
2018-06-24T01:16:06.106Z,92.21
2018-06-24T01:17:06.081Z,92.02
2018-06-24T01:18:06.062Z,92.35
2018-06-24T01:19:06.043Z,92.21
2018-06-24T01:20:06.023Z,92.50
2018-06-24T01:21:06.004Z,92.59
2018-06-24T01:22:05.982Z,92.40
2018-06-24T01:23:05.963Z,92.97
2018-06-24T01:24:05.944Z,93.07
2018-06-24T01:25:05.923Z,93.07
2018-06-24T01:26:05.908Z,93.16
2018-06-24T01:27:05.887Z,93.36
2018-06-24T01:28:05.866Z,93.45
2018-06-24T01:29:05.845Z,93.16
2018-06-24T01:30:05.826Z,93.07
2018-06-24T01:31:05.806Z,93.36
2018-06-24T01:32:05.787Z,93.45
2018-06-24T01:33:05.766Z,93.07
2018-06-24T01:34:05.747Z,93.74
2018-06-24T01:35:05.729Z,93.84
2018-06-24T01:36:05.707Z,93.36
2018-06-24T01:37:05.687Z,93.45
2018-06-24T01:38:05.667Z,93.45
2018-06-24T01:39:05.648Z,94.41
2018-06-24T01:40:05.627Z,93.74
2018-06-24T01:41:05.607Z,93.74
2018-06-24T01:42:05.590Z,93.65
2018-06-24T01:43:05.568Z,94.22
2018-06-24T01:44:05.549Z,94.22
2018-06-24T01:45:05.529Z,93.84
2018-06-24T01:46:05.508Z,94.27
2018-06-24T01:47:05.489Z,94.22
2018-06-24T01:48:05.470Z,93.88
2018-06-24T01:49:05.450Z,93.84
2018-06-24T01:50:05.429Z,94.12
2018-06-24T01:51:05.419Z,93.74
2018-06-24T01:52:05.390Z,94.12
2018-06-24T01:53:05.370Z,94.41
2018-06-24T01:54:05.350Z,94.70
2018-06-24T01:55:05.330Z,94.51
2018-06-24T01:56:05.311Z,94.22
2018-06-24T01:57:05.290Z,94.51
2018-06-24T01:58:05.270Z,94.31
2018-06-24T01:59:05.251Z,94.65
2018-06-24T02:00:05.232Z,94.65
2018-06-24T02:01:05.210Z,94.55
2018-06-24T02:02:05.192Z,94.36
2018-06-24T02:03:05.171Z,94.27
2018-06-24T02:04:05.152Z,94.65
2018-06-24T02:05:05.133Z,94.74
2018-06-24T02:06:05.111Z,95.03
2018-06-24T02:07:05.091Z,95.03
2018-06-24T02:08:05.073Z,94.84
2018-06-24T02:09:05.051Z,95.03
2018-06-24T02:10:05.033Z,94.84
2018-06-24T02:11:05.012Z,95.12
2018-06-24T02:12:04.992Z,95.32
2018-06-24T02:13:04.973Z,95.22
2018-06-24T02:14:04.951Z,95.61
2018-06-24T02:15:06.436Z,95.41
2018-06-24T02:16:04.914Z,95.79
2018-06-24T02:17:04.890Z,95.79
2018-06-24T02:18:04.872Z,95.61
2018-06-24T02:19:04.851Z,95.79
2018-06-24T02:20:04.832Z,95.61
2018-06-24T02:21:04.811Z,95.61
2018-06-24T02:22:04.815Z,96.27
2018-06-24T02:23:04.771Z,96.27
2018-06-24T02:24:04.751Z,96.27
2018-06-24T02:25:04.731Z,96.37
2018-06-24T02:26:04.710Z,96.17
2018-06-24T02:27:04.691Z,96.22
2018-06-24T02:28:04.670Z,95.84
2018-06-24T02:29:04.649Z,96.61
2018-06-24T02:30:04.630Z,96.66
2018-06-24T02:31:04.611Z,96.32
2018-06-24T02:32:04.591Z,96.32
2018-06-24T02:33:04.573Z,96.37
2018-06-24T02:34:04.551Z,96.51
2018-06-24T02:35:04.529Z,96.22
2018-06-24T02:36:04.509Z,96.42
2018-06-24T02:37:05.238Z,96.22
2018-06-24T02:38:04.467Z,96.80
2018-06-24T02:39:04.455Z,96.89
2018-06-24T02:40:04.429Z,96.98
2018-06-24T02:41:04.407Z,96.70
2018-06-24T02:42:04.390Z,97.37
2018-06-24T02:43:04.367Z,97.08
2018-06-24T02:44:04.357Z,96.70
2018-06-24T02:45:04.325Z,97.08
2018-06-24T02:46:04.307Z,96.89
2018-06-24T02:47:04.284Z,96.80
2018-06-24T02:48:05.017Z,96.89
2018-06-24T02:49:04.243Z,96.98
2018-06-24T02:50:04.224Z,97.27
2018-06-24T02:51:04.203Z,97.08
2018-06-24T02:52:04.183Z,97.27
2018-06-24T02:53:04.162Z,97.37
2018-06-24T02:54:04.142Z,97.56
2018-06-24T02:55:04.122Z,97.47
2018-06-24T02:56:04.287Z,97.27
2018-06-24T02:57:04.080Z,97.27
2018-06-24T02:58:04.060Z,97.37
2018-06-24T02:59:04.039Z,97.18
2018-06-24T03:00:04.026Z,97.56
2018-06-24T03:01:03.998Z,97.27
2018-06-24T03:02:03.979Z,97.37
2018-06-24T03:03:03.957Z,97.18
2018-06-24T03:04:03.939Z,97.37
2018-06-24T03:05:03.916Z,97.27
2018-06-24T03:06:03.897Z,97.18
2018-06-24T03:07:03.875Z,97.27
2018-06-24T03:08:03.856Z,96.98
2018-06-24T03:09:03.834Z,97.85
2018-06-24T03:10:03.813Z,97.18
2018-06-24T03:11:03.794Z,96.98
2018-06-24T03:12:03.773Z,97.56
2018-06-24T03:13:03.752Z,97.66
2018-06-24T03:14:03.732Z,97.37
2018-06-24T03:15:04.462Z,97.66
2018-06-24T03:16:03.692Z,97.37
2018-06-24T03:17:03.670Z,97.47
2018-06-24T03:18:03.648Z,97.47
2018-06-24T03:19:03.630Z,97.56
2018-06-24T03:20:03.612Z,97.47
2018-06-24T03:21:03.587Z,97.56
2018-06-24T03:22:03.568Z,97.94
2018-06-24T03:23:03.545Z,97.85
2018-06-24T03:24:03.525Z,97.75
2018-06-24T03:25:03.504Z,97.94
2018-06-24T03:26:03.485Z,97.94
2018-06-24T03:27:03.494Z,97.94
2018-06-24T03:28:03.444Z,97.94
2018-06-24T03:29:03.422Z,98.03
2018-06-24T03:30:03.407Z,98.03
2018-06-24T03:31:03.381Z,98.03
2018-06-24T03:32:03.361Z,98.03
2018-06-24T03:33:03.339Z,97.75
2018-06-24T03:34:03.320Z,97.94
2018-06-24T03:35:03.298Z,98.03
2018-06-24T03:36:03.278Z,97.85
2018-06-24T03:37:03.257Z,98.03
2018-06-24T03:38:03.243Z,97.75
2018-06-24T03:39:03.216Z,97.56
2018-06-24T03:40:03.200Z,97.85
2018-06-24T03:41:03.174Z,98.03
2018-06-24T03:42:03.156Z,98.23
2018-06-24T03:43:03.132Z,98.23
2018-06-24T03:44:03.112Z,98.13
2018-06-24T03:45:03.091Z,98.99
2018-06-24T03:46:03.070Z,98.13
2018-06-24T03:47:03.050Z,97.94
2018-06-24T03:48:03.029Z,98.61
2018-06-24T03:49:03.008Z,97.94
2018-06-24T03:50:02.990Z,97.75
2018-06-24T03:51:02.969Z,97.85
2018-06-24T03:52:02.947Z,98.71
2018-06-24T03:53:02.925Z,98.71
2018-06-24T03:54:02.906Z,98.61
2018-06-24T03:55:02.885Z,98.03
2018-06-24T03:56:02.865Z,98.03
2018-06-24T03:57:02.843Z,98.71
2018-06-24T03:58:02.857Z,98.61
2018-06-24T03:59:02.842Z,97.75
2018-06-24T04:00:02.782Z,98.71
2018-06-24T04:01:02.760Z,97.66
2018-06-24T04:02:02.739Z,98.13
2018-06-24T04:03:02.720Z,97.75
2018-06-24T04:04:02.699Z,98.23
2018-06-24T04:05:02.679Z,98.13
2018-06-24T04:06:02.658Z,97.75
2018-06-24T04:07:02.638Z,97.94
2018-06-24T04:08:02.617Z,97.85
2018-06-24T04:09:02.596Z,98.23
2018-06-24T04:10:02.575Z,97.94
2018-06-24T04:11:02.554Z,97.75
2018-06-24T04:12:02.534Z,98.13
2018-06-24T04:13:02.514Z,97.75
2018-06-24T04:14:02.498Z,97.66
2018-06-24T04:15:02.473Z,98.03
2018-06-24T04:16:02.452Z,98.61
2018-06-24T04:17:02.431Z,98.32
2018-06-24T04:18:02.410Z,98.52
2018-06-24T04:19:02.389Z,98.32
2018-06-24T04:20:02.370Z,98.52
2018-06-24T04:21:02.348Z,98.42
2018-06-24T04:22:02.327Z,98.71
2018-06-24T04:23:03.057Z,98.42
2018-06-24T04:24:02.288Z,98.61
2018-06-24T04:25:02.266Z,98.99
2018-06-24T04:26:02.245Z,97.75
2018-06-24T04:27:02.226Z,97.75
2018-06-24T04:28:02.205Z,97.94
2018-06-24T04:29:02.184Z,97.75
2018-06-24T04:30:02.163Z,98.13
2018-06-24T04:31:02.144Z,97.85
2018-06-24T04:32:02.124Z,98.13
2018-06-24T04:33:02.102Z,97.85
2018-06-24T04:34:02.084Z,97.75
2018-06-24T04:35:02.062Z,98.61
2018-06-24T04:36:02.047Z,97.94
2018-06-24T04:37:02.020Z,98.23
2018-06-24T04:38:01.999Z,97.75
2018-06-24T04:39:03.482Z,97.85
2018-06-24T04:40:01.962Z,98.37
2018-06-24T04:41:01.939Z,97.61
2018-06-24T04:42:01.919Z,97.61
2018-06-24T04:43:01.899Z,97.42
2018-06-24T04:44:01.878Z,97.23
2018-06-24T04:45:02.611Z,97.32
2018-06-24T04:46:01.842Z,97.32
2018-06-24T04:47:01.817Z,97.03
2018-06-24T04:48:01.800Z,96.84
2018-06-24T04:49:01.831Z,96.84
2018-06-24T04:50:01.762Z,97.03
2018-06-24T04:51:01.745Z,97.03
2018-06-24T04:52:01.717Z,97.03
2018-06-24T04:53:01.720Z,97.03
2018-06-24T04:54:01.677Z,97.13
2018-06-24T04:55:01.657Z,96.84
2018-06-24T04:56:01.636Z,96.84
2018-06-24T04:57:01.615Z,97.23
2018-06-24T04:58:01.595Z,96.75
2018-06-24T04:59:01.574Z,96.94
2018-06-24T05:00:01.555Z,96.84
2018-06-24T05:01:01.535Z,97.03
2018-06-24T05:02:01.514Z,96.66
2018-06-24T05:03:01.495Z,97.03
2018-06-24T05:04:01.475Z,97.23
2018-06-24T05:05:01.457Z,96.84
2018-06-24T05:06:01.434Z,97.08
2018-06-24T05:07:01.415Z,96.70
2018-06-24T05:08:01.393Z,97.03
2018-06-24T05:09:01.373Z,97.42
2018-06-24T05:10:01.353Z,96.66
2018-06-24T05:11:01.334Z,97.03
2018-06-24T05:12:01.313Z,97.08
2018-06-24T05:13:01.292Z,97.23
2018-06-24T05:14:01.272Z,97.18
2018-06-24T05:15:01.255Z,97.08
2018-06-24T05:16:01.234Z,96.70
2018-06-24T05:17:01.212Z,96.51
2018-06-24T05:18:01.194Z,97.08
2018-06-24T05:19:01.175Z,96.99
2018-06-24T05:20:01.153Z,96.80
2018-06-24T05:21:01.133Z,96.80
2018-06-24T05:22:01.113Z,96.99
2018-06-24T05:23:01.096Z,97.23
2018-06-24T05:24:01.072Z,95.98
2018-06-24T05:25:01.053Z,96.42
2018-06-24T05:26:01.034Z,95.84
2018-06-24T05:27:01.013Z,96.13
2018-06-24T05:28:00.994Z,95.89
2018-06-24T05:29:00.975Z,95.65
2018-06-24T05:30:00.953Z,95.79
2018-06-24T05:31:00.934Z,95.70
2018-06-24T05:32:00.914Z,95.70
2018-06-24T05:33:03.162Z,96.37
2018-06-24T05:34:00.874Z,95.51
2018-06-24T05:35:00.857Z,95.89
2018-06-24T05:36:00.836Z,95.61
2018-06-24T05:37:00.816Z,95.98
2018-06-24T05:38:00.797Z,95.98
2018-06-24T05:39:00.779Z,95.32
2018-06-24T05:40:00.757Z,95.41
2018-06-24T05:41:00.738Z,95.03
2018-06-24T05:42:00.719Z,95.32
2018-06-24T05:43:00.723Z,94.46
2018-06-24T05:44:00.679Z,94.93
2018-06-24T05:45:00.660Z,94.93
2018-06-24T05:46:00.639Z,95.12
2018-06-24T05:47:00.625Z,95.61
2018-06-24T05:48:00.601Z,94.84
2018-06-24T05:49:00.581Z,95.41
2018-06-24T05:50:00.563Z,95.32
2018-06-24T05:51:00.543Z,95.70
2018-06-24T05:52:00.524Z,94.93
2018-06-24T05:53:00.503Z,95.41
2018-06-24T05:54:00.484Z,95.41
2018-06-24T05:55:01.968Z,95.22
2018-06-24T05:56:00.446Z,95.32
2018-06-24T05:57:00.425Z,95.12
2018-06-24T05:58:00.407Z,96.08
2018-06-24T05:59:00.387Z,96.18
2018-06-24T06:00:00.369Z,94.74
2018-06-24T06:01:00.349Z,95.12
2018-06-24T06:02:00.330Z,95.12
2018-06-24T06:03:00.504Z,95.22
2018-06-24T06:04:00.292Z,95.17
2018-06-24T06:05:00.271Z,94.79
2018-06-24T06:06:00.253Z,95.36
2018-06-24T06:07:00.233Z,94.60
2018-06-24T06:08:00.213Z,94.70
2018-06-24T06:09:00.194Z,94.55
2018-06-24T06:10:00.255Z,94.50
2018-06-24T06:11:00.155Z,95.17
2018-06-24T06:12:00.138Z,95.65
2018-06-24T06:13:00.121Z,94.41
2018-06-24T06:14:00.099Z,94.02
2018-06-24T06:15:00.096Z,94.31
2018-06-24T06:16:00.123Z,94.60
2018-06-24T06:17:00.041Z,94.98
2018-06-24T06:18:00.025Z,94.98
2018-06-24T06:19:00.001Z,94.70
2018-06-24T06:19:59.985Z,94.70
2018-06-24T06:20:59.963Z,95.46
2018-06-24T06:21:59.948Z,94.31
2018-06-24T06:22:59.927Z,94.65
2018-06-24T06:23:59.908Z,94.17
2018-06-24T06:24:59.886Z,94.07
2018-06-24T06:25:59.869Z,94.26
2018-06-24T06:26:59.850Z,94.12
2018-06-24T06:27:59.830Z,94.12
2018-06-24T06:28:59.810Z,94.02
2018-06-24T06:29:59.792Z,94.41
2018-06-24T06:30:59.773Z,94.60
2018-06-24T06:31:59.755Z,94.70
2018-06-24T06:32:59.735Z,94.70
2018-06-24T06:33:59.717Z,94.31
2018-06-24T06:34:59.698Z,94.50
2018-06-24T06:35:59.682Z,94.74
2018-06-24T06:36:59.660Z,94.45
2018-06-24T06:37:59.640Z,94.07
2018-06-24T06:38:59.622Z,94.07
2018-06-24T06:39:59.604Z,94.26
2018-06-24T06:40:59.584Z,93.69
2018-06-24T06:41:59.568Z,93.88
2018-06-24T06:42:59.548Z,93.69
2018-06-24T06:43:59.528Z,94.31
2018-06-24T06:44:59.583Z,93.50
2018-06-24T06:45:59.494Z,93.50
2018-06-24T06:47:00.224Z,93.45
2018-06-24T06:47:59.454Z,93.69
2018-06-24T06:48:59.435Z,93.12
2018-06-24T06:49:59.419Z,93.40
2018-06-24T06:50:59.411Z,93.21
2018-06-24T06:51:59.379Z,93.74
2018-06-24T06:52:59.360Z,93.45
2018-06-24T06:53:59.341Z,93.07
2018-06-24T06:54:59.323Z,93.07
2018-06-24T06:55:59.306Z,93.74
2018-06-24T06:56:59.286Z,93.74
2018-06-24T06:57:59.272Z,92.87
2018-06-24T06:58:59.249Z,92.40
2018-06-24T06:59:59.231Z,92.30
2018-06-24T07:00:59.212Z,92.78
2018-06-24T07:01:59.194Z,92.11
2018-06-24T07:02:59.177Z,93.49
2018-06-24T07:03:59.158Z,93.21
2018-06-24T07:04:59.138Z,92.63
2018-06-24T07:05:59.120Z,91.96
2018-06-24T07:06:59.104Z,91.00
2018-06-24T07:07:59.084Z,91.86
2018-06-24T07:08:59.066Z,91.58
2018-06-24T07:09:59.048Z,91.58
2018-06-24T07:10:59.031Z,91.96
2018-06-24T07:11:59.012Z,92.39
2018-06-24T07:12:59.043Z,91.91
2018-06-24T07:13:59.726Z,90.67
2018-06-24T07:14:58.959Z,90.95
2018-06-24T07:15:58.941Z,91.91
2018-06-24T07:16:58.921Z,91.24
2018-06-24T07:17:58.906Z,91.24
2018-06-24T07:18:58.886Z,91.14
2018-06-24T07:19:58.869Z,90.57
2018-06-24T07:20:58.853Z,90.38
2018-06-24T07:21:58.844Z,90.28
2018-06-24T07:22:58.816Z,90.28
2018-06-24T07:23:58.798Z,90.47
2018-06-24T07:24:58.779Z,91.38
2018-06-24T07:25:58.762Z,90.14
2018-06-24T07:26:58.745Z,89.65
2018-06-24T07:27:58.735Z,90.14
2018-06-24T07:28:58.715Z,89.27
2018-06-24T07:29:58.694Z,89.75
2018-06-24T07:30:58.680Z,89.75
2018-06-24T07:31:58.664Z,89.47
2018-06-24T07:32:58.641Z,89.47
2018-06-24T07:33:58.625Z,89.37
2018-06-24T07:34:58.606Z,88.70
2018-06-24T07:35:58.590Z,88.41
2018-06-24T07:36:58.572Z,89.08
2018-06-24T07:37:58.555Z,89.51
2018-06-24T07:38:58.539Z,88.07
2018-06-24T07:39:58.521Z,87.98
2018-06-24T07:40:58.503Z,87.11
2018-06-24T07:41:58.487Z,87.49
2018-06-24T07:42:58.470Z,86.92
2018-06-24T07:43:58.454Z,88.07
2018-06-24T07:44:58.435Z,87.21
2018-06-24T07:46:05.926Z,87.54
2018-06-24T07:46:58.401Z,88.21
2018-06-24T07:47:58.385Z,85.67
2018-06-24T07:48:58.368Z,86.63
2018-06-24T07:49:58.351Z,88.07
2018-06-24T07:50:58.335Z,86.63
2018-06-24T07:52:00.572Z,85.86
2018-06-24T07:52:58.302Z,86.19
2018-06-24T07:53:58.286Z,86.92
2018-06-24T07:54:58.269Z,87.01
2018-06-24T07:55:58.254Z,87.40
2018-06-24T07:56:58.235Z,86.10
2018-06-24T07:58:02.723Z,85.86
2018-06-24T07:58:58.202Z,88.26
2018-06-24T07:59:58.186Z,88.60
2018-06-24T08:00:58.168Z,88.12
2018-06-24T08:01:58.154Z,88.41
2018-06-24T08:02:58.136Z,88.89
2018-06-24T08:03:58.125Z,89.56
2018-06-24T08:04:58.106Z,89.27
2018-06-24T08:05:58.089Z,89.27
2018-06-24T08:06:58.070Z,87.78
2018-06-24T08:07:58.054Z,88.45
2018-06-24T08:08:58.036Z,88.26
2018-06-24T08:09:58.023Z,86.92
2018-06-24T08:10:58.003Z,87.59
2018-06-24T08:11:57.988Z,89.08
2018-06-24T08:12:57.970Z,88.79
2018-06-24T08:13:57.954Z,89.22
2018-06-24T08:14:57.938Z,88.74
2018-06-24T08:15:57.921Z,88.70
2018-06-24T08:16:57.903Z,89.65
2018-06-24T08:17:57.886Z,89.94
2018-06-24T08:18:57.871Z,90.23
2018-06-24T08:19:57.854Z,89.41
2018-06-24T08:20:57.836Z,89.22
2018-06-24T08:21:57.821Z,88.79
2018-06-24T08:22:57.805Z,89.79
2018-06-24T08:23:57.788Z,88.84
2018-06-24T08:24:57.772Z,88.07
2018-06-24T08:25:57.756Z,87.30
2018-06-24T08:26:57.744Z,87.78
2018-06-24T08:27:57.723Z,87.01
2018-06-24T08:28:57.706Z,86.25
2018-06-24T08:29:59.190Z,86.58
2018-06-24T08:30:57.674Z,86.63
2018-06-24T08:31:57.660Z,86.58
2018-06-24T08:32:57.662Z,86.44
2018-06-24T08:33:57.625Z,87.59
2018-06-24T08:34:57.608Z,87.88
2018-06-24T08:35:59.093Z,88.74
2018-06-24T08:36:57.575Z,87.78
2018-06-24T08:37:57.559Z,87.15
2018-06-24T08:38:57.594Z,88.98
2018-06-24T08:39:57.529Z,87.87
2018-06-24T08:40:57.512Z,86.62
2018-06-24T08:41:57.496Z,86.43
2018-06-24T08:42:57.485Z,85.24
2018-06-24T08:43:57.464Z,85.91
2018-06-24T08:44:57.449Z,86.58
2018-06-24T08:45:57.432Z,86.77
2018-06-24T08:46:57.415Z,87.77
2018-06-24T08:47:57.402Z,88.25
2018-06-24T08:48:57.390Z,86.91
2018-06-24T08:49:57.369Z,86.62
2018-06-24T08:50:57.352Z,85.13
2018-06-24T08:51:57.336Z,84.03
2018-06-24T08:52:57.325Z,85.47
2018-06-24T08:53:57.306Z,85.66
2018-06-24T08:54:57.290Z,85.51
2018-06-24T08:55:57.274Z,86.05
2018-06-24T08:56:57.257Z,84.89
2018-06-24T08:57:57.993Z,85.95
2018-06-24T08:58:57.227Z,87.49
2018-06-24T08:59:57.211Z,87.39
2018-06-24T09:00:57.196Z,85.66
2018-06-24T09:01:57.180Z,85.89
2018-06-24T09:02:57.167Z,83.69
2018-06-24T09:03:57.149Z,85.51
2018-06-24T09:04:57.134Z,85.41
2018-06-24T09:05:57.118Z,84.70
2018-06-24T09:06:57.103Z,85.22
2018-06-24T09:07:57.109Z,84.64
2018-06-24T09:08:57.072Z,83.97
2018-06-24T09:09:57.059Z,83.59
2018-06-24T09:10:57.051Z,84.22
2018-06-24T09:11:57.027Z,84.03
2018-06-24T09:12:57.012Z,84.60
2018-06-24T09:13:57.040Z,84.26
2018-06-24T09:14:56.985Z,83.69
2018-06-24T09:15:57.052Z,83.64
2018-06-24T09:16:56.951Z,85.18
2018-06-24T09:17:56.934Z,84.41
2018-06-24T09:18:56.921Z,85.13
2018-06-24T09:19:57.657Z,84.51
2018-06-24T09:20:56.889Z,86.14
2018-06-24T09:21:56.875Z,85.51
2018-06-24T09:22:56.860Z,84.26
2018-06-24T09:23:56.845Z,84.07
2018-06-24T09:24:56.829Z,82.53
2018-06-24T09:25:56.816Z,85.51
2018-06-24T09:26:56.799Z,83.97
2018-06-24T09:27:56.783Z,84.36
2018-06-24T09:28:56.770Z,83.87
2018-06-24T09:29:56.753Z,84.17
2018-06-24T09:30:57.491Z,84.07
2018-06-24T09:31:56.723Z,83.97
2018-06-24T09:32:56.707Z,83.40
2018-06-24T09:33:56.693Z,83.15
2018-06-24T09:34:56.679Z,82.67
2018-06-24T09:35:56.665Z,82.48
2018-06-24T09:36:56.647Z,84.11
2018-06-24T09:37:56.632Z,82.52
2018-06-24T09:38:56.618Z,81.27
2018-06-24T09:39:56.605Z,81.37
2018-06-24T09:40:56.658Z,82.19
2018-06-24T09:41:56.573Z,82.61
2018-06-24T09:42:56.561Z,81.02
2018-06-24T09:43:56.545Z,80.63
2018-06-24T09:44:56.529Z,78.52
2018-06-24T09:45:56.519Z,79.25
2018-06-24T09:46:56.501Z,80.21
2018-06-24T09:47:56.486Z,80.25
2018-06-24T09:48:56.470Z,79.35
2018-06-24T09:49:56.456Z,81.13
2018-06-24T09:50:56.443Z,81.37
2018-06-24T09:51:56.428Z,80.69
2018-06-24T09:52:56.480Z,80.60
2018-06-24T09:53:56.399Z,80.40
2018-06-24T09:54:56.387Z,80.69
2018-06-24T09:55:56.370Z,80.21
2018-06-24T09:56:56.354Z,80.30
2018-06-24T09:57:56.341Z,79.86
2018-06-24T09:58:56.327Z,79.10
2018-06-24T09:59:56.312Z,77.90
2018-06-24T10:00:56.298Z,79.05
2018-06-24T10:01:56.284Z,80.11
2018-06-24T10:02:56.270Z,79.58
2018-06-24T10:03:56.254Z,78.09
2018-06-24T10:04:56.240Z,78.09
2018-06-24T10:05:56.226Z,79.44
2018-06-24T10:06:56.211Z,79.19
2018-06-24T10:07:56.196Z,77.71
2018-06-24T10:08:56.181Z,77.04
2018-06-24T10:09:56.168Z,78.19
2018-06-24T10:10:56.174Z,79.15
2018-06-24T10:11:56.144Z,79.44
2018-06-24T10:12:56.125Z,79.38
2018-06-24T10:13:56.110Z,79.77
2018-06-24T10:14:56.096Z,78.56
2018-06-24T10:15:56.081Z,76.25
2018-06-24T10:16:56.066Z,77.31
2018-06-24T10:17:56.053Z,75.63
2018-06-24T10:18:56.037Z,74.76
2018-06-24T10:19:56.023Z,75.05
2018-06-24T10:20:56.009Z,76.40
2018-06-24T10:21:56.746Z,77.21
2018-06-24T10:22:55.980Z,76.15
2018-06-24T10:23:55.966Z,74.80
2018-06-24T10:24:55.952Z,74.09
2018-06-24T10:25:55.940Z,74.86
2018-06-24T10:26:55.923Z,76.88
2018-06-24T10:27:55.910Z,77.94
2018-06-24T10:28:55.894Z,77.36
2018-06-24T10:29:55.880Z,77.98
2018-06-24T10:30:55.867Z,78.56
2018-06-24T10:31:55.853Z,78.88
2018-06-24T10:32:55.839Z,78.36
2018-06-24T10:33:55.824Z,79.52
2018-06-24T10:34:55.813Z,80.96
2018-06-24T10:35:55.797Z,79.33
2018-06-24T10:36:55.782Z,80.00
2018-06-24T10:37:56.520Z,77.78
2018-06-24T10:38:55.756Z,78.27
2018-06-24T10:39:55.742Z,78.94
2018-06-24T10:40:55.727Z,77.59
2018-06-24T10:41:55.713Z,77.31
2018-06-24T10:42:55.701Z,77.83
2018-06-24T10:43:55.689Z,79.17
2018-06-24T10:44:55.672Z,78.17
2018-06-24T10:45:55.658Z,80.60
2018-06-24T10:46:55.644Z,81.84
2018-06-24T10:47:55.631Z,82.76
2018-06-24T10:48:55.617Z,82.48
2018-06-24T10:49:55.603Z,83.69
2018-06-24T10:50:55.589Z,83.63
2018-06-24T10:51:55.575Z,84.50
2018-06-24T10:52:55.563Z,83.67
2018-06-24T10:53:55.545Z,81.46
2018-06-24T10:54:55.531Z,81.60
2018-06-24T10:55:55.516Z,81.21
2018-06-24T10:56:55.500Z,81.54
2018-06-24T10:57:55.485Z,79.52
2018-06-24T10:58:55.472Z,78.94
2018-06-24T10:59:55.457Z,79.52
2018-06-24T11:00:55.442Z,78.88
2018-06-24T11:01:55.485Z,77.73
2018-06-24T11:02:55.413Z,77.15
2018-06-24T11:03:55.400Z,76.53
2018-06-24T11:04:55.384Z,77.69
2018-06-24T11:05:55.371Z,77.50
2018-06-24T11:06:55.357Z,78.17
2018-06-24T11:07:55.342Z,78.08
2018-06-24T11:08:55.327Z,78.08
2018-06-24T11:09:55.389Z,77.31
2018-06-24T11:10:55.300Z,77.31
2018-06-24T11:11:55.287Z,77.88
2018-06-24T11:12:55.272Z,77.69
2018-06-24T11:13:55.259Z,78.75
2018-06-24T11:14:55.244Z,77.01
2018-06-24T11:15:55.230Z,77.17
2018-06-24T11:16:55.218Z,78.17
2018-06-24T11:17:55.202Z,77.11
2018-06-24T11:18:55.187Z,77.34
2018-06-24T11:19:55.175Z,77.34
2018-06-24T11:20:55.911Z,75.36
2018-06-24T11:21:55.203Z,75.84
2018-06-24T11:22:55.133Z,76.13
2018-06-24T11:23:55.119Z,75.65
2018-06-24T11:24:55.103Z,74.93
2018-06-24T11:25:55.090Z,74.68
2018-06-24T11:26:55.077Z,75.65
2018-06-24T11:27:55.062Z,75.80
2018-06-24T11:28:55.049Z,76.28
2018-06-24T11:29:55.036Z,75.71
2018-06-24T11:30:55.072Z,75.55
2018-06-24T11:31:55.762Z,75.16
2018-06-24T11:32:54.994Z,73.82
2018-06-24T11:33:54.984Z,73.62
2018-06-24T11:34:54.968Z,73.39
2018-06-24T11:35:54.955Z,74.55
2018-06-24T11:36:54.953Z,74.55
2018-06-24T11:37:54.928Z,76.38
2018-06-24T11:38:54.915Z,77.48
2018-06-24T11:39:54.902Z,74.88
2018-06-24T11:40:54.889Z,74.84
2018-06-24T11:41:54.875Z,74.20
2018-06-24T11:42:55.613Z,74.30
2018-06-24T11:43:54.849Z,74.01
2018-06-24T11:44:54.835Z,73.66
2018-06-24T11:45:54.821Z,73.08
2018-06-24T11:46:54.808Z,72.79
2018-06-24T11:47:54.857Z,73.57
2018-06-24T11:48:54.782Z,72.41
2018-06-24T11:49:54.768Z,71.22
2018-06-24T11:50:54.755Z,71.41
2018-06-24T11:51:54.741Z,72.37
2018-06-24T11:52:54.728Z,74.74
2018-06-24T11:53:56.217Z,74.36
2018-06-24T11:54:54.749Z,74.03
2018-06-24T11:55:54.689Z,74.65
2018-06-24T11:56:54.679Z,74.03
2018-06-24T11:57:54.663Z,74.26
2018-06-24T11:58:54.650Z,74.65
2018-06-24T11:59:56.139Z,73.33
2018-06-24T12:00:54.624Z,72.85
2018-06-24T12:01:54.616Z,72.63
2018-06-24T12:02:54.597Z,71.00
2018-06-24T12:03:54.584Z,71.12
2018-06-24T12:04:54.570Z,69.32
2018-06-24T12:05:57.561Z,69.45
2018-06-24T12:06:54.593Z,70.76
2018-06-24T12:07:54.533Z,69.87
2018-06-24T12:08:54.518Z,70.83
2018-06-24T12:09:54.603Z,74.88
2018-06-24T12:10:54.589Z,74.91
2018-06-24T12:11:55.231Z,72.50
2018-06-24T12:12:54.468Z,71.38
2018-06-24T12:13:54.456Z,70.03
2018-06-24T12:14:54.442Z,70.03
2018-06-24T12:15:54.430Z,69.67
2018-06-24T12:16:54.417Z,71.22
2018-06-24T12:17:54.404Z,71.02
2018-06-24T12:18:54.392Z,71.15
2018-06-24T12:19:54.380Z,70.22
2018-06-24T12:20:54.368Z,69.78
2018-06-24T12:21:54.354Z,67.55
2018-06-24T12:22:54.342Z,68.23
2018-06-24T12:23:54.330Z,69.10
2018-06-24T12:24:54.317Z,69.78
2018-06-24T12:25:54.306Z,69.20
2018-06-24T12:26:54.297Z,68.49
2018-06-24T12:27:54.280Z,69.03
2018-06-24T12:28:54.269Z,69.13
2018-06-24T12:29:54.256Z,68.84
2018-06-24T12:30:54.245Z,69.48
2018-06-24T12:31:54.231Z,70.48
2018-06-24T12:32:54.219Z,69.07
2018-06-24T12:33:54.207Z,68.97
2018-06-24T12:34:54.195Z,69.39
2018-06-24T12:35:54.184Z,68.39
2018-06-24T12:36:54.170Z,68.52
2018-06-24T12:37:54.159Z,66.59
2018-06-24T12:38:54.147Z,65.95
2018-06-24T12:39:54.135Z,64.24
2018-06-24T12:40:54.123Z,64.85
2018-06-24T12:41:54.111Z,64.56
2018-06-24T12:42:54.101Z,65.08
2018-06-24T12:43:54.088Z,66.63
2018-06-24T12:44:54.076Z,66.66
2018-06-24T12:45:54.065Z,68.55
2018-06-24T12:46:54.053Z,70.42
2018-06-24T12:47:54.042Z,68.10
2018-06-24T12:48:54.028Z,67.62
2018-06-24T12:49:54.017Z,68.55
2018-06-24T12:50:54.006Z,68.99
2018-06-24T12:51:53.995Z,70.15